»·PEaware :: DCM205 KSBA-KPSP

DCM205 :: KSBA-KPSP

FLIGHT INFORMATION

Flight Status: Arrived
Operator:
DotCom
More flights by this operator :: More flights under this callsign
Pilot: Chris S. (2433)
Aircraft: DEHAVILLAND DASH 8 400
(DH8D)
More flights by this aircraft type
Origin: KSBA Santa Barbara Mun
United States
Destination: KPSP Palm Springs Intl
United States
More flights between these airports :: More routes between these airports
Route: +HENER PMD V137 PSP
File this flight plan on PilotEdge
Remarks:
Altitude:
(Current/Filed)
19,000ft
Speed:
(Current/Filed)
350kts
Departed: 26-Apr-20 12:28 PM
Arrived: 26-Apr-20 01:12 PM
Distance/Time
Traveled:
169nm/0:44
Distance/Time
To Go:
Arrived

Flight Plot

Page will automatically refresh every two minutes.

Flight plan parsing failed; only flown route is shown


Map Options




Map Legend


Flown Route
Filed Route
Departure Airport
Arrival Airport
Navaid (VOR, NDB)
Fix

Horizontal Profiles

Position Reports

Time Latitude Longitude Heading Altitude Ground
Speed
26-Apr-20 12:02 34.426009 -119.837460 89 17ft 0kts
26-Apr-20 12:03 34.426009 -119.837460 89 17ft 0kts
26-Apr-20 12:04 34.426009 -119.837460 89 17ft 0kts
26-Apr-20 12:05 34.426009 -119.837460 89 17ft 0kts
26-Apr-20 12:06 34.426009 -119.837460 89 17ft 0kts
26-Apr-20 12:07 34.426009 -119.837460 89 17ft 0kts
26-Apr-20 12:08 34.426009 -119.837460 89 17ft 0kts
26-Apr-20 12:09 34.426009 -119.837460 89 17ft 0kts
26-Apr-20 12:10 34.426009 -119.837460 89 17ft 0kts
26-Apr-20 12:11 34.426009 -119.837460 89 17ft 0kts
26-Apr-20 12:12 34.426009 -119.837460 89 17ft 0kts
26-Apr-20 12:13 34.426009 -119.837460 89 17ft 0kts
26-Apr-20 12:14 34.426009 -119.837460 89 17ft 0kts
26-Apr-20 12:15 34.426009 -119.837460 89 17ft 0kts
26-Apr-20 12:16 34.426009 -119.837460 89 17ft 0kts
26-Apr-20 12:17 34.426009 -119.837460 89 17ft 0kts
26-Apr-20 12:18 34.426009 -119.837460 89 17ft 0kts
26-Apr-20 12:19 34.426022 -119.837430 66 17ft 0kts
26-Apr-20 12:20 34.426115 -119.837461 303 17ft 1kts
26-Apr-20 12:21 34.426771 -119.835128 88 17ft 6kts
26-Apr-20 12:22 34.426772 -119.835067 87 17ft 0kts
26-Apr-20 12:23 34.427001 -119.834604 13 17ft 0kts
26-Apr-20 12:24 34.427007 -119.834602 12 17ft 0kts
26-Apr-20 12:25 34.427093 -119.834581 9 17ft 4kts
26-Apr-20 12:26 34.427888 -119.835133 270 17ft 0kts
26-Apr-20 12:27 34.427393 -119.866584 265 892ft 141kts
26-Apr-20 12:28 34.427357 -119.920302 270 3430ft 157kts
26-Apr-20 12:29 34.423502 -119.970743 224 6065ft 161kts
26-Apr-20 12:30 34.383064 -119.948426 122 8285ft 171kts
26-Apr-20 12:31 34.373476 -119.888245 75 9730ft 212kts
26-Apr-20 12:32 34.385327 -119.813107 77 11502ft 233kts
26-Apr-20 12:33 34.397568 -119.733268 78 13432ft 244kts
26-Apr-20 12:34 34.410201 -119.649319 79 14967ft 270kts
26-Apr-20 12:35 34.424263 -119.554401 80 15952ft 293kts
26-Apr-20 12:36 34.438716 -119.455879 80 17079ft 301kts
26-Apr-20 12:37 34.453473 -119.354697 80 18082ft 308kts
26-Apr-20 12:38 34.466968 -119.260915 81 18838ft 313kts
26-Apr-20 12:39 34.482344 -119.152992 81 19021ft 338kts
26-Apr-20 12:40 34.498657 -119.037237 81 19036ft 355kts
26-Apr-20 12:41 34.515408 -118.917595 81 19088ft 365kts
26-Apr-20 12:42 34.532418 -118.795166 81 19115ft 371kts
26-Apr-20 12:43 34.549558 -118.671326 81 19129ft 374kts
26-Apr-20 12:44 34.566671 -118.546722 82 19128ft 375kts
26-Apr-20 12:45 34.583709 -118.421325 82 19100ft 377kts
26-Apr-20 12:46 34.600678 -118.295484 82 19080ft 377kts
26-Apr-20 12:47 34.617428 -118.169740 82 19069ft 378kts
26-Apr-20 12:48 34.622767 -118.044425 112 19072ft 368kts
26-Apr-20 12:49 34.573710 -117.937448 124 19067ft 364kts
26-Apr-20 12:50 34.524625 -117.830328 123 19061ft 363kts
26-Apr-20 12:51 34.475744 -117.723389 123 19062ft 364kts
26-Apr-20 12:52 34.426532 -117.616693 123 18948ft 366kts
26-Apr-20 12:53 34.377173 -117.509730 123 19061ft 358kts
26-Apr-20 12:54 34.328775 -117.405195 123 19286ft 357kts
26-Apr-20 12:55 34.279738 -117.299855 124 19118ft 366kts
26-Apr-20 12:56 34.229457 -117.191862 123 19082ft 367kts
26-Apr-20 12:57 34.179342 -117.084799 123 19082ft 367kts
26-Apr-20 12:58 34.127929 -116.974840 124 17402ft 377kts
26-Apr-20 12:59 34.076825 -116.866633 123 15730ft 366kts
26-Apr-20 13:00 34.027633 -116.762070 123 14333ft 345kts
26-Apr-20 13:01 33.983755 -116.668595 124 14142ft 288kts
26-Apr-20 13:02 33.948571 -116.588457 118 12267ft 261kts
26-Apr-20 13:03 33.918604 -116.513022 119 10267ft 242kts
26-Apr-20 13:04 33.887993 -116.443415 125 8082ft 233kts
26-Apr-20 13:05 33.846083 -116.388423 140 6175ft 211kts
26-Apr-20 13:06 33.795098 -116.362931 192 4123ft 199kts
26-Apr-20 13:07 33.760688 -116.403713 256 2852ft 183kts
26-Apr-20 13:08 33.768523 -116.453328 309 1823ft 129kts
26-Apr-20 13:09 33.796219 -116.478307 324 1123ft 122kts
26-Apr-20 13:10 33.824231 -116.502973 326 485ft 112kts
26-Apr-20 13:11 33.832993 -116.510648 324 484ft 13kts
26-Apr-20 13:12 33.833018 -116.511814 210 484ft 0kts

Navigation Log

Ident Type
Flight plan parsing failed, navigation log unavailable